sensor_id;sensor_type;location;lat;lon;timestamp;P1;durP1;ratioP1;P2;durP2;ratioP2
9720;SDS011;4899;42.644;23.366;2023-12-28T00:00:12;14.00;;;9.77;;
9720;SDS011;4899;42.644;23.366;2023-12-28T00:02:38;15.20;;;11.23;;
9720;SDS011;4899;42.644;23.366;2023-12-28T00:05:03;12.37;;;9.97;;
9720;SDS011;4899;42.644;23.366;2023-12-28T00:07:29;13.80;;;10.03;;
9720;SDS011;4899;42.644;23.366;2023-12-28T00:09:54;16.87;;;10.03;;
9720;SDS011;4899;42.644;23.366;2023-12-28T00:12:19;12.67;;;9.13;;
9720;SDS011;4899;42.644;23.366;2023-12-28T00:14:45;11.77;;;9.67;;
9720;SDS011;4899;42.644;23.366;2023-12-28T00:17:10;11.27;;;8.90;;
9720;SDS011;4899;42.644;23.366;2023-12-28T00:19:35;12.63;;;9.43;;
9720;SDS011;4899;42.644;23.366;2023-12-28T00:22:01;10.90;;;7.83;;
9720;SDS011;4899;42.644;23.366;2023-12-28T00:24:26;10.07;;;7.87;;
9720;SDS011;4899;42.644;23.366;2023-12-28T00:26:52;9.83;;;8.10;;
9720;SDS011;4899;42.644;23.366;2023-12-28T00:29:17;12.23;;;8.53;;
9720;SDS011;4899;42.644;23.366;2023-12-28T00:31:43;15.30;;;9.43;;
9720;SDS011;4899;42.644;23.366;2023-12-28T00:34:08;11.17;;;7.53;;
9720;SDS011;4899;42.644;23.366;2023-12-28T00:36:33;12.83;;;8.50;;
9720;SDS011;4899;42.644;23.366;2023-12-28T00:38:58;9.67;;;7.17;;
9720;SDS011;4899;42.644;23.366;2023-12-28T00:41:24;11.50;;;6.87;;
9720;SDS011;4899;42.644;23.366;2023-12-28T00:43:49;11.07;;;6.90;;
9720;SDS011;4899;42.644;23.366;2023-12-28T00:46:14;9.97;;;6.83;;
9720;SDS011;4899;42.644;23.366;2023-12-28T00:48:40;9.37;;;6.40;;
9720;SDS011;4899;42.644;23.366;2023-12-28T00:51:05;8.63;;;6.23;;
9720;SDS011;4899;42.644;23.366;2023-12-28T00:53:30;7.67;;;5.93;;
9720;SDS011;4899;42.644;23.366;2023-12-28T00:55:56;7.23;;;6.10;;
9720;SDS011;4899;42.644;23.366;2023-12-28T00:58:21;11.93;;;6.50;;
9720;SDS011;4899;42.644;23.366;2023-12-28T01:00:46;7.40;;;6.00;;
9720;SDS011;4899;42.644;23.366;2023-12-28T01:03:12;10.43;;;7.07;;
9720;SDS011;4899;42.644;23.366;2023-12-28T01:05:37;8.53;;;6.30;;
9720;SDS011;4899;42.644;23.366;2023-12-28T01:08:02;9.73;;;7.70;;
9720;SDS011;4899;42.644;23.366;2023-12-28T01:10:28;9.47;;;7.17;;
9720;SDS011;4899;42.644;23.366;2023-12-28T01:12:53;10.20;;;6.87;;
9720;SDS011;4899;42.644;23.366;2023-12-28T01:15:19;8.57;;;7.13;;
9720;SDS011;4899;42.644;23.366;2023-12-28T01:17:45;10.20;;;7.10;;
9720;SDS011;4899;42.644;23.366;2023-12-28T01:20:11;10.53;;;6.77;;
9720;SDS011;4899;42.644;23.366;2023-12-28T01:22:36;9.63;;;6.80;;
9720;SDS011;4899;42.644;23.366;2023-12-28T01:25:01;9.87;;;6.87;;
9720;SDS011;4899;42.644;23.366;2023-12-28T01:27:27;8.27;;;6.20;;
9720;SDS011;4899;42.644;23.366;2023-12-28T01:29:52;9.10;;;7.10;;
9720;SDS011;4899;42.644;23.366;2023-12-28T01:32:18;8.37;;;5.70;;
9720;SDS011;4899;42.644;23.366;2023-12-28T01:34:43;8.43;;;6.00;;
9720;SDS011;4899;42.644;23.366;2023-12-28T01:37:10;7.07;;;5.83;;
9720;SDS011;4899;42.644;23.366;2023-12-28T01:39:35;7.53;;;5.60;;
9720;SDS011;4899;42.644;23.366;2023-12-28T01:42:00;9.27;;;5.80;;
9720;SDS011;4899;42.644;23.366;2023-12-28T01:44:26;10.03;;;6.20;;
9720;SDS011;4899;42.644;23.366;2023-12-28T01:46:51;10.77;;;5.83;;
9720;SDS011;4899;42.644;23.366;2023-12-28T01:49:17;7.07;;;5.73;;
9720;SDS011;4899;42.644;23.366;2023-12-28T01:51:42;8.60;;;6.13;;
9720;SDS011;4899;42.644;23.366;2023-12-28T01:54:09;8.67;;;5.53;;
9720;SDS011;4899;42.644;23.366;2023-12-28T01:56:34;9.87;;;6.10;;
9720;SDS011;4899;42.644;23.366;2023-12-28T01:58:59;8.73;;;6.87;;
9720;SDS011;4899;42.644;23.366;2023-12-28T02:01:25;9.13;;;5.83;;
9720;SDS011;4899;42.644;23.366;2023-12-28T02:03:51;10.07;;;6.73;;
9720;SDS011;4899;42.644;23.366;2023-12-28T02:06:16;7.33;;;6.33;;
9720;SDS011;4899;42.644;23.366;2023-12-28T02:08:42;7.20;;;6.03;;
9720;SDS011;4899;42.644;23.366;2023-12-28T02:11:07;9.60;;;6.10;;
9720;SDS011;4899;42.644;23.366;2023-12-28T02:13:33;9.23;;;5.83;;
9720;SDS011;4899;42.644;23.366;2023-12-28T02:16:01;7.57;;;5.63;;
9720;SDS011;4899;42.644;23.366;2023-12-28T02:18:30;7.90;;;5.93;;
9720;SDS011;4899;42.644;23.366;2023-12-28T02:20:59;7.70;;;6.10;;
9720;SDS011;4899;42.644;23.366;2023-12-28T02:23:25;8.30;;;6.20;;
9720;SDS011;4899;42.644;23.366;2023-12-28T02:25:50;9.70;;;7.37;;
9720;SDS011;4899;42.644;23.366;2023-12-28T02:28:15;12.43;;;6.77;;
9720;SDS011;4899;42.644;23.366;2023-12-28T02:30:41;8.90;;;6.53;;
9720;SDS011;4899;42.644;23.366;2023-12-28T02:36:01;7.83;;;5.47;;
9720;SDS011;4899;42.644;23.366;2023-12-28T02:38:29;7.97;;;5.87;;
9720;SDS011;4899;42.644;23.366;2023-12-28T02:40:55;7.57;;;5.00;;
9720;SDS011;4899;42.644;23.366;2023-12-28T02:43:20;6.93;;;5.43;;
9720;SDS011;4899;42.644;23.366;2023-12-28T02:45:45;8.70;;;5.60;;
9720;SDS011;4899;42.644;23.366;2023-12-28T02:48:11;9.30;;;5.63;;
9720;SDS011;4899;42.644;23.366;2023-12-28T02:50:36;9.50;;;5.80;;
9720;SDS011;4899;42.644;23.366;2023-12-28T02:53:02;8.87;;;5.90;;
9720;SDS011;4899;42.644;23.366;2023-12-28T02:55:27;7.20;;;5.30;;
9720;SDS011;4899;42.644;23.366;2023-12-28T02:57:54;6.53;;;5.33;;
9720;SDS011;4899;42.644;23.366;2023-12-28T03:00:28;8.40;;;5.47;;
9720;SDS011;4899;42.644;23.366;2023-12-28T03:02:53;7.50;;;5.03;;
9720;SDS011;4899;42.644;23.366;2023-12-28T03:05:19;5.17;;;4.67;;
9720;SDS011;4899;42.644;23.366;2023-12-28T03:07:44;5.90;;;5.27;;
9720;SDS011;4899;42.644;23.366;2023-12-28T03:10:10;7.00;;;5.90;;
9720;SDS011;4899;42.644;23.366;2023-12-28T03:12:36;7.77;;;6.63;;
9720;SDS011;4899;42.644;23.366;2023-12-28T03:15:01;10.67;;;6.63;;
9720;SDS011;4899;42.644;23.366;2023-12-28T03:17:27;10.20;;;6.23;;
9720;SDS011;4899;42.644;23.366;2023-12-28T03:19:54;8.47;;;6.37;;
9720;SDS011;4899;42.644;23.366;2023-12-28T03:22:19;10.23;;;6.77;;
9720;SDS011;4899;42.644;23.366;2023-12-28T03:24:46;8.40;;;6.33;;
9720;SDS011;4899;42.644;23.366;2023-12-28T03:27:11;7.80;;;6.00;;
9720;SDS011;4899;42.644;23.366;2023-12-28T03:29:37;6.80;;;5.83;;
9720;SDS011;4899;42.644;23.366;2023-12-28T03:32:02;6.60;;;5.40;;
9720;SDS011;4899;42.644;23.366;2023-12-28T03:34:27;9.50;;;6.63;;
9720;SDS011;4899;42.644;23.366;2023-12-28T03:36:55;6.83;;;5.43;;
9720;SDS011;4899;42.644;23.366;2023-12-28T03:39:20;9.57;;;6.30;;
9720;SDS011;4899;42.644;23.366;2023-12-28T03:41:45;10.77;;;6.40;;
9720;SDS011;4899;42.644;23.366;2023-12-28T03:44:11;8.67;;;5.93;;
9720;SDS011;4899;42.644;23.366;2023-12-28T03:46:37;9.17;;;6.27;;
9720;SDS011;4899;42.644;23.366;2023-12-28T03:49:03;9.23;;;6.13;;
9720;SDS011;4899;42.644;23.366;2023-12-28T03:51:28;9.13;;;5.80;;
9720;SDS011;4899;42.644;23.366;2023-12-28T03:53:53;6.70;;;5.77;;
9720;SDS011;4899;42.644;23.366;2023-12-28T03:56:22;7.37;;;5.90;;
9720;SDS011;4899;42.644;23.366;2023-12-28T03:58:48;7.87;;;5.40;;
9720;SDS011;4899;42.644;23.366;2023-12-28T04:01:13;6.83;;;5.50;;
9720;SDS011;4899;42.644;23.366;2023-12-28T04:03:38;8.17;;;5.90;;
9720;SDS011;4899;42.644;23.366;2023-12-28T04:06:04;7.37;;;5.23;;
9720;SDS011;4899;42.644;23.366;2023-12-28T04:08:30;7.73;;;5.97;;
9720;SDS011;4899;42.644;23.366;2023-12-28T04:10:55;7.17;;;5.90;;
9720;SDS011;4899;42.644;23.366;2023-12-28T04:13:20;10.63;;;6.43;;
9720;SDS011;4899;42.644;23.366;2023-12-28T04:15:46;11.97;;;6.70;;
9720;SDS011;4899;42.644;23.366;2023-12-28T04:18:11;10.30;;;7.37;;
9720;SDS011;4899;42.644;23.366;2023-12-28T04:20:36;11.63;;;7.83;;
9720;SDS011;4899;42.644;23.366;2023-12-28T04:23:02;8.93;;;6.60;;
9720;SDS011;4899;42.644;23.366;2023-12-28T04:25:27;8.73;;;5.83;;
9720;SDS011;4899;42.644;23.366;2023-12-28T04:27:52;10.73;;;6.97;;
9720;SDS011;4899;42.644;23.366;2023-12-28T04:30:18;9.97;;;6.40;;
9720;SDS011;4899;42.644;23.366;2023-12-28T04:32:43;10.13;;;5.93;;
9720;SDS011;4899;42.644;23.366;2023-12-28T04:35:08;12.10;;;8.47;;
9720;SDS011;4899;42.644;23.366;2023-12-28T04:37:34;13.23;;;9.40;;
9720;SDS011;4899;42.644;23.366;2023-12-28T04:40:00;15.80;;;10.83;;
9720;SDS011;4899;42.644;23.366;2023-12-28T04:42:25;17.33;;;12.80;;
9720;SDS011;4899;42.644;23.366;2023-12-28T04:44:50;21.83;;;14.57;;
9720;SDS011;4899;42.644;23.366;2023-12-28T04:47:16;22.43;;;14.03;;
9720;SDS011;4899;42.644;23.366;2023-12-28T04:49:41;18.70;;;12.67;;
9720;SDS011;4899;42.644;23.366;2023-12-28T04:52:06;16.27;;;11.37;;
9720;SDS011;4899;42.644;23.366;2023-12-28T04:54:32;18.30;;;12.87;;
9720;SDS011;4899;42.644;23.366;2023-12-28T04:56:58;20.03;;;14.40;;
9720;SDS011;4899;42.644;23.366;2023-12-28T04:59:23;14.47;;;11.30;;
9720;SDS011;4899;42.644;23.366;2023-12-28T05:01:48;15.53;;;11.47;;
9720;SDS011;4899;42.644;23.366;2023-12-28T05:04:14;14.40;;;10.90;;
9720;SDS011;4899;42.644;23.366;2023-12-28T05:06:39;15.80;;;10.00;;
9720;SDS011;4899;42.644;23.366;2023-12-28T05:09:04;11.57;;;7.20;;
9720;SDS011;4899;42.644;23.366;2023-12-28T05:11:30;11.70;;;8.37;;
9720;SDS011;4899;42.644;23.366;2023-12-28T05:13:56;13.53;;;10.63;;
9720;SDS011;4899;42.644;23.366;2023-12-28T05:16:21;10.40;;;8.23;;
9720;SDS011;4899;42.644;23.366;2023-12-28T05:18:47;12.07;;;8.83;;
9720;SDS011;4899;42.644;23.366;2023-12-28T05:21:12;16.30;;;9.57;;
9720;SDS011;4899;42.644;23.366;2023-12-28T05:23:38;14.70;;;10.13;;
9720;SDS011;4899;42.644;23.366;2023-12-28T05:26:03;11.80;;;9.70;;
9720;SDS011;4899;42.644;23.366;2023-12-28T05:28:28;16.47;;;10.97;;
9720;SDS011;4899;42.644;23.366;2023-12-28T05:30:54;13.43;;;10.57;;
9720;SDS011;4899;42.644;23.366;2023-12-28T05:33:19;14.83;;;9.80;;
9720;SDS011;4899;42.644;23.366;2023-12-28T05:35:44;14.67;;;11.00;;
9720;SDS011;4899;42.644;23.366;2023-12-28T05:38:10;14.27;;;10.93;;
9720;SDS011;4899;42.644;23.366;2023-12-28T05:40:35;13.57;;;10.50;;
9720;SDS011;4899;42.644;23.366;2023-12-28T05:43:00;15.30;;;10.97;;
9720;SDS011;4899;42.644;23.366;2023-12-28T05:45:26;15.67;;;11.10;;
9720;SDS011;4899;42.644;23.366;2023-12-28T05:47:51;12.73;;;9.10;;
9720;SDS011;4899;42.644;23.366;2023-12-28T05:50:16;12.50;;;9.13;;
9720;SDS011;4899;42.644;23.366;2023-12-28T05:52:41;10.60;;;8.20;;
9720;SDS011;4899;42.644;23.366;2023-12-28T05:55:07;12.57;;;8.50;;
9720;SDS011;4899;42.644;23.366;2023-12-28T05:57:33;14.83;;;9.37;;
9720;SDS011;4899;42.644;23.366;2023-12-28T05:59:58;8.97;;;7.13;;
9720;SDS011;4899;42.644;23.366;2023-12-28T06:02:23;12.07;;;7.00;;
9720;SDS011;4899;42.644;23.366;2023-12-28T06:04:49;10.37;;;6.17;;
9720;SDS011;4899;42.644;23.366;2023-12-28T06:07:14;8.97;;;6.10;;
9720;SDS011;4899;42.644;23.366;2023-12-28T06:09:40;8.50;;;5.87;;
9720;SDS011;4899;42.644;23.366;2023-12-28T06:12:05;10.13;;;6.07;;
9720;SDS011;4899;42.644;23.366;2023-12-28T06:14:30;8.23;;;5.77;;
9720;SDS011;4899;42.644;23.366;2023-12-28T06:16:56;7.33;;;5.47;;
9720;SDS011;4899;42.644;23.366;2023-12-28T06:19:21;7.97;;;5.27;;
9720;SDS011;4899;42.644;23.366;2023-12-28T06:21:49;11.67;;;5.97;;
9720;SDS011;4899;42.644;23.366;2023-12-28T06:24:15;8.10;;;5.40;;
9720;SDS011;4899;42.644;23.366;2023-12-28T06:26:41;6.97;;;5.30;;
9720;SDS011;4899;42.644;23.366;2023-12-28T06:29:06;7.37;;;5.80;;
9720;SDS011;4899;42.644;23.366;2023-12-28T06:31:32;9.57;;;7.00;;
9720;SDS011;4899;42.644;23.366;2023-12-28T06:34:01;10.57;;;6.63;;
9720;SDS011;4899;42.644;23.366;2023-12-28T06:36:26;11.00;;;8.80;;
9720;SDS011;4899;42.644;23.366;2023-12-28T06:38:51;11.27;;;7.23;;
9720;SDS011;4899;42.644;23.366;2023-12-28T06:41:17;12.03;;;7.03;;
9720;SDS011;4899;42.644;23.366;2023-12-28T06:43:42;11.27;;;6.53;;
9720;SDS011;4899;42.644;23.366;2023-12-28T06:46:07;9.67;;;6.00;;
9720;SDS011;4899;42.644;23.366;2023-12-28T06:48:33;7.40;;;5.93;;
9720;SDS011;4899;42.644;23.366;2023-12-28T06:50:58;8.00;;;6.40;;
9720;SDS011;4899;42.644;23.366;2023-12-28T06:53:23;9.77;;;6.90;;
9720;SDS011;4899;42.644;23.366;2023-12-28T06:55:48;9.73;;;6.23;;
9720;SDS011;4899;42.644;23.366;2023-12-28T06:58:14;6.33;;;5.47;;
9720;SDS011;4899;42.644;23.366;2023-12-28T07:00:39;8.33;;;5.50;;
9720;SDS011;4899;42.644;23.366;2023-12-28T07:03:06;10.30;;;5.70;;
9720;SDS011;4899;42.644;23.366;2023-12-28T07:05:31;6.83;;;5.10;;
9720;SDS011;4899;42.644;23.366;2023-12-28T07:07:57;8.83;;;5.67;;
9720;SDS011;4899;42.644;23.366;2023-12-28T07:10:22;8.97;;;5.77;;
9720;SDS011;4899;42.644;23.366;2023-12-28T07:12:47;8.27;;;6.23;;
9720;SDS011;4899;42.644;23.366;2023-12-28T07:15:13;7.87;;;6.03;;
9720;SDS011;4899;42.644;23.366;2023-12-28T07:17:39;9.17;;;6.60;;
9720;SDS011;4899;42.644;23.366;2023-12-28T07:20:05;10.40;;;7.27;;
9720;SDS011;4899;42.644;23.366;2023-12-28T07:22:30;10.60;;;6.60;;
9720;SDS011;4899;42.644;23.366;2023-12-28T07:24:55;8.87;;;6.60;;
9720;SDS011;4899;42.644;23.366;2023-12-28T07:27:21;11.37;;;7.13;;
9720;SDS011;4899;42.644;23.366;2023-12-28T07:29:46;9.77;;;6.83;;
9720;SDS011;4899;42.644;23.366;2023-12-28T07:32:11;9.33;;;7.90;;
9720;SDS011;4899;42.644;23.366;2023-12-28T07:34:37;10.27;;;7.67;;
9720;SDS011;4899;42.644;23.366;2023-12-28T07:37:02;10.50;;;7.50;;
9720;SDS011;4899;42.644;23.366;2023-12-28T07:39:28;8.83;;;7.47;;
9720;SDS011;4899;42.644;23.366;2023-12-28T07:41:53;9.40;;;7.20;;
9720;SDS011;4899;42.644;23.366;2023-12-28T07:44:18;7.60;;;6.70;;
9720;SDS011;4899;42.644;23.366;2023-12-28T07:46:44;9.53;;;7.73;;
9720;SDS011;4899;42.644;23.366;2023-12-28T07:49:09;10.03;;;6.80;;
9720;SDS011;4899;42.644;23.366;2023-12-28T07:51:34;7.67;;;5.97;;
9720;SDS011;4899;42.644;23.366;2023-12-28T07:54:00;8.43;;;6.33;;
9720;SDS011;4899;42.644;23.366;2023-12-28T07:56:25;6.47;;;5.80;;
9720;SDS011;4899;42.644;23.366;2023-12-28T07:58:50;8.33;;;6.27;;
9720;SDS011;4899;42.644;23.366;2023-12-28T08:01:16;7.30;;;6.30;;
9720;SDS011;4899;42.644;23.366;2023-12-28T08:03:41;12.80;;;8.87;;
9720;SDS011;4899;42.644;23.366;2023-12-28T08:06:06;8.60;;;6.10;;
9720;SDS011;4899;42.644;23.366;2023-12-28T08:08:32;8.40;;;6.63;;
9720;SDS011;4899;42.644;23.366;2023-12-28T08:10:57;7.30;;;6.10;;
9720;SDS011;4899;42.644;23.366;2023-12-28T08:13:22;7.93;;;6.27;;
9720;SDS011;4899;42.644;23.366;2023-12-28T08:15:48;7.20;;;5.97;;
9720;SDS011;4899;42.644;23.366;2023-12-28T08:18:13;8.60;;;6.50;;
9720;SDS011;4899;42.644;23.366;2023-12-28T08:20:39;9.13;;;7.40;;
9720;SDS011;4899;42.644;23.366;2023-12-28T08:23:04;8.60;;;7.07;;
9720;SDS011;4899;42.644;23.366;2023-12-28T08:25:29;10.53;;;7.23;;
9720;SDS011;4899;42.644;23.366;2023-12-28T08:27:55;11.00;;;8.33;;
9720;SDS011;4899;42.644;23.366;2023-12-28T08:30:20;16.23;;;10.97;;
9720;SDS011;4899;42.644;23.366;2023-12-28T08:32:46;17.97;;;13.53;;
9720;SDS011;4899;42.644;23.366;2023-12-28T08:35:11;19.40;;;13.93;;
9720;SDS011;4899;42.644;23.366;2023-12-28T08:37:37;19.50;;;13.43;;
9720;SDS011;4899;42.644;23.366;2023-12-28T08:40:02;25.50;;;15.33;;
9720;SDS011;4899;42.644;23.366;2023-12-28T08:42:29;17.30;;;13.90;;
9720;SDS011;4899;42.644;23.366;2023-12-28T08:44:54;21.87;;;15.43;;
9720;SDS011;4899;42.644;23.366;2023-12-28T08:47:19;20.07;;;15.47;;
9720;SDS011;4899;42.644;23.366;2023-12-28T08:49:44;23.00;;;17.23;;
9720;SDS011;4899;42.644;23.366;2023-12-28T08:52:10;20.43;;;16.07;;
9720;SDS011;4899;42.644;23.366;2023-12-28T08:54:35;23.83;;;17.90;;
9720;SDS011;4899;42.644;23.366;2023-12-28T08:57:00;25.30;;;20.93;;
9720;SDS011;4899;42.644;23.366;2023-12-28T08:59:26;27.60;;;20.43;;
9720;SDS011;4899;42.644;23.366;2023-12-28T09:01:53;25.67;;;18.60;;
9720;SDS011;4899;42.644;23.366;2023-12-28T09:04:18;24.43;;;18.73;;
9720;SDS011;4899;42.644;23.366;2023-12-28T09:06:44;26.10;;;17.97;;
9720;SDS011;4899;42.644;23.366;2023-12-28T09:09:09;24.27;;;19.50;;
9720;SDS011;4899;42.644;23.366;2023-12-28T09:11:34;26.63;;;19.90;;
9720;SDS011;4899;42.644;23.366;2023-12-28T09:14:00;24.70;;;18.60;;
9720;SDS011;4899;42.644;23.366;2023-12-28T09:16:25;22.53;;;18.43;;
9720;SDS011;4899;42.644;23.366;2023-12-28T09:18:51;28.43;;;18.40;;
9720;SDS011;4899;42.644;23.366;2023-12-28T09:21:16;22.47;;;18.83;;
9720;SDS011;4899;42.644;23.366;2023-12-28T09:23:42;25.87;;;19.03;;
9720;SDS011;4899;42.644;23.366;2023-12-28T09:26:07;22.20;;;18.37;;
9720;SDS011;4899;42.644;23.366;2023-12-28T09:28:33;24.70;;;19.93;;
9720;SDS011;4899;42.644;23.366;2023-12-28T09:30:59;29.97;;;19.97;;
9720;SDS011;4899;42.644;23.366;2023-12-28T09:33:25;31.67;;;21.70;;
9720;SDS011;4899;42.644;23.366;2023-12-28T09:35:50;30.07;;;20.93;;
9720;SDS011;4899;42.644;23.366;2023-12-28T09:38:15;27.20;;;20.20;;
9720;SDS011;4899;42.644;23.366;2023-12-28T09:40:41;26.53;;;21.43;;
9720;SDS011;4899;42.644;23.366;2023-12-28T09:43:13;33.63;;;22.97;;
9720;SDS011;4899;42.644;23.366;2023-12-28T09:45:40;28.97;;;21.50;;
9720;SDS011;4899;42.644;23.366;2023-12-28T09:48:06;30.00;;;22.40;;
9720;SDS011;4899;42.644;23.366;2023-12-28T09:50:32;33.00;;;22.63;;
9720;SDS011;4899;42.644;23.366;2023-12-28T09:52:57;28.97;;;21.77;;
9720;SDS011;4899;42.644;23.366;2023-12-28T09:55:22;26.17;;;21.77;;
9720;SDS011;4899;42.644;23.366;2023-12-28T09:57:50;30.60;;;23.00;;
9720;SDS011;4899;42.644;23.366;2023-12-28T10:00:16;36.50;;;22.50;;
9720;SDS011;4899;42.644;23.366;2023-12-28T10:02:43;30.90;;;23.07;;
9720;SDS011;4899;42.644;23.366;2023-12-28T10:05:11;25.27;;;19.17;;
9720;SDS011;4899;42.644;23.366;2023-12-28T10:07:40;30.43;;;19.77;;
9720;SDS011;4899;42.644;23.366;2023-12-28T10:10:05;21.93;;;19.47;;
9720;SDS011;4899;42.644;23.366;2023-12-28T10:12:32;24.47;;;20.20;;
9720;SDS011;4899;42.644;23.366;2023-12-28T10:14:57;25.90;;;21.23;;
9720;SDS011;4899;42.644;23.366;2023-12-28T10:17:23;25.10;;;19.97;;
9720;SDS011;4899;42.644;23.366;2023-12-28T10:19:48;25.67;;;20.13;;
9720;SDS011;4899;42.644;23.366;2023-12-28T10:22:13;25.10;;;20.17;;
9720;SDS011;4899;42.644;23.366;2023-12-28T10:24:45;25.47;;;21.33;;
9720;SDS011;4899;42.644;23.366;2023-12-28T10:27:11;30.23;;;21.47;;
9720;SDS011;4899;42.644;23.366;2023-12-28T10:29:37;26.03;;;20.27;;
9720;SDS011;4899;42.644;23.366;2023-12-28T10:32:02;24.63;;;20.33;;
9720;SDS011;4899;42.644;23.366;2023-12-28T10:34:28;26.23;;;20.60;;
9720;SDS011;4899;42.644;23.366;2023-12-28T10:36:53;25.20;;;20.17;;
9720;SDS011;4899;42.644;23.366;2023-12-28T10:39:20;28.60;;;21.67;;
9720;SDS011;4899;42.644;23.366;2023-12-28T10:41:48;28.57;;;21.23;;
9720;SDS011;4899;42.644;23.366;2023-12-28T10:44:15;29.20;;;21.73;;
9720;SDS011;4899;42.644;23.366;2023-12-28T10:46:42;27.83;;;20.97;;
9720;SDS011;4899;42.644;23.366;2023-12-28T10:49:11;29.13;;;20.67;;
9720;SDS011;4899;42.644;23.366;2023-12-28T10:51:40;27.73;;;20.70;;
9720;SDS011;4899;42.644;23.366;2023-12-28T10:56:47;23.67;;;18.80;;
9720;SDS011;4899;42.644;23.366;2023-12-28T10:59:17;22.27;;;19.27;;
9720;SDS011;4899;42.644;23.366;2023-12-28T11:01:43;24.83;;;19.87;;
9720;SDS011;4899;42.644;23.366;2023-12-28T11:04:17;26.33;;;20.93;;
9720;SDS011;4899;42.644;23.366;2023-12-28T11:06:47;25.50;;;20.93;;
9720;SDS011;4899;42.644;23.366;2023-12-28T11:09:13;23.50;;;19.43;;
9720;SDS011;4899;42.644;23.366;2023-12-28T11:11:40;26.20;;;20.97;;
9720;SDS011;4899;42.644;23.366;2023-12-28T11:14:06;26.53;;;20.37;;
9720;SDS011;4899;42.644;23.366;2023-12-28T11:16:32;26.73;;;21.13;;
9720;SDS011;4899;42.644;23.366;2023-12-28T11:18:58;27.50;;;22.70;;
9720;SDS011;4899;42.644;23.366;2023-12-28T11:21:24;32.37;;;22.37;;
9720;SDS011;4899;42.644;23.366;2023-12-28T11:23:49;26.57;;;23.03;;
9720;SDS011;4899;42.644;23.366;2023-12-28T11:26:18;27.17;;;21.90;;
9720;SDS011;4899;42.644;23.366;2023-12-28T11:28:44;30.57;;;23.13;;
9720;SDS011;4899;42.644;23.366;2023-12-28T11:31:16;27.30;;;23.73;;
9720;SDS011;4899;42.644;23.366;2023-12-28T11:36:10;31.20;;;24.87;;
9720;SDS011;4899;42.644;23.366;2023-12-28T11:38:35;27.87;;;23.17;;
9720;SDS011;4899;42.644;23.366;2023-12-28T11:41:03;30.10;;;24.10;;
9720;SDS011;4899;42.644;23.366;2023-12-28T11:43:28;28.70;;;23.73;;
9720;SDS011;4899;42.644;23.366;2023-12-28T11:45:58;33.53;;;23.83;;
9720;SDS011;4899;42.644;23.366;2023-12-28T11:48:25;29.10;;;23.83;;
9720;SDS011;4899;42.644;23.366;2023-12-28T11:50:54;35.43;;;25.13;;
9720;SDS011;4899;42.644;23.366;2023-12-28T11:53:20;29.93;;;23.00;;
9720;SDS011;4899;42.644;23.366;2023-12-28T11:55:46;27.80;;;23.87;;
9720;SDS011;4899;42.644;23.366;2023-12-28T11:58:11;28.63;;;23.70;;
9720;SDS011;4899;42.644;23.366;2023-12-28T12:00:37;27.30;;;22.80;;
9720;SDS011;4899;42.644;23.366;2023-12-28T12:03:02;30.90;;;22.03;;
9720;SDS011;4899;42.644;23.366;2023-12-28T12:05:28;28.60;;;22.40;;
9720;SDS011;4899;42.644;23.366;2023-12-28T12:07:54;27.53;;;21.43;;
9720;SDS011;4899;42.644;23.366;2023-12-28T12:10:19;24.90;;;21.10;;
9720;SDS011;4899;42.644;23.366;2023-12-28T12:12:46;29.23;;;20.90;;
9720;SDS011;4899;42.644;23.366;2023-12-28T12:15:12;23.70;;;20.37;;
9720;SDS011;4899;42.644;23.366;2023-12-28T12:17:38;23.17;;;20.30;;
9720;SDS011;4899;42.644;23.366;2023-12-28T12:20:03;21.37;;;18.83;;
9720;SDS011;4899;42.644;23.366;2023-12-28T12:22:29;24.63;;;19.40;;
9720;SDS011;4899;42.644;23.366;2023-12-28T12:24:54;22.80;;;19.10;;
9720;SDS011;4899;42.644;23.366;2023-12-28T12:27:21;23.03;;;17.40;;
9720;SDS011;4899;42.644;23.366;2023-12-28T12:29:46;18.60;;;16.53;;
9720;SDS011;4899;42.644;23.366;2023-12-28T12:32:12;18.37;;;14.87;;
9720;SDS011;4899;42.644;23.366;2023-12-28T12:34:37;18.43;;;15.73;;
9720;SDS011;4899;42.644;23.366;2023-12-28T12:37:03;20.20;;;17.47;;
9720;SDS011;4899;42.644;23.366;2023-12-28T12:39:29;18.33;;;16.43;;
9720;SDS011;4899;42.644;23.366;2023-12-28T12:41:54;21.93;;;16.40;;
9720;SDS011;4899;42.644;23.366;2023-12-28T12:44:22;22.23;;;17.40;;
9720;SDS011;4899;42.644;23.366;2023-12-28T12:46:47;20.67;;;16.60;;
9720;SDS011;4899;42.644;23.366;2023-12-28T12:49:12;20.63;;;17.07;;
9720;SDS011;4899;42.644;23.366;2023-12-28T12:51:38;22.67;;;16.47;;
9720;SDS011;4899;42.644;23.366;2023-12-28T12:54:03;22.77;;;17.07;;
9720;SDS011;4899;42.644;23.366;2023-12-28T12:56:31;21.40;;;16.80;;
9720;SDS011;4899;42.644;23.366;2023-12-28T12:58:57;20.27;;;16.93;;
9720;SDS011;4899;42.644;23.366;2023-12-28T13:01:23;23.97;;;16.63;;
9720;SDS011;4899;42.644;23.366;2023-12-28T13:03:49;19.23;;;16.17;;
9720;SDS011;4899;42.644;23.366;2023-12-28T13:06:15;18.30;;;15.83;;
9720;SDS011;4899;42.644;23.366;2023-12-28T13:08:40;21.20;;;16.87;;
9720;SDS011;4899;42.644;23.366;2023-12-28T13:11:05;17.63;;;15.53;;
9720;SDS011;4899;42.644;23.366;2023-12-28T13:13:32;20.00;;;15.10;;
9720;SDS011;4899;42.644;23.366;2023-12-28T13:15:57;17.90;;;16.00;;
9720;SDS011;4899;42.644;23.366;2023-12-28T13:18:23;18.90;;;16.00;;
9720;SDS011;4899;42.644;23.366;2023-12-28T13:20:48;20.00;;;15.07;;
9720;SDS011;4899;42.644;23.366;2023-12-28T13:23:13;17.20;;;15.50;;
9720;SDS011;4899;42.644;23.366;2023-12-28T13:25:38;18.85;;;14.88;;
9720;SDS011;4899;42.644;23.366;2023-12-28T13:28:04;22.05;;;15.45;;
9720;SDS011;4899;42.644;23.366;2023-12-28T13:30:29;19.00;;;15.63;;
9720;SDS011;4899;42.644;23.366;2023-12-28T13:32:55;18.52;;;15.18;;
9720;SDS011;4899;42.644;23.366;2023-12-28T13:35:23;20.25;;;15.60;;
9720;SDS011;4899;42.644;23.366;2023-12-28T13:37:48;16.58;;;14.85;;
9720;SDS011;4899;42.644;23.366;2023-12-28T13:40:14;18.05;;;14.88;;
9720;SDS011;4899;42.644;23.366;2023-12-28T13:42:40;16.35;;;14.77;;
9720;SDS011;4899;42.644;23.366;2023-12-28T13:45:05;18.00;;;14.15;;
9720;SDS011;4899;42.644;23.366;2023-12-28T13:47:31;16.83;;;15.05;;
9720;SDS011;4899;42.644;23.366;2023-12-28T13:49:56;17.17;;;14.60;;
9720;SDS011;4899;42.644;23.366;2023-12-28T13:52:22;18.83;;;14.93;;
9720;SDS011;4899;42.644;23.366;2023-12-28T13:54:47;17.05;;;15.25;;
9720;SDS011;4899;42.644;23.366;2023-12-28T13:57:12;16.53;;;14.93;;
9720;SDS011;4899;42.644;23.366;2023-12-28T13:59:37;18.87;;;15.40;;
9720;SDS011;4899;42.644;23.366;2023-12-28T14:02:03;20.57;;;16.60;;
9720;SDS011;4899;42.644;23.366;2023-12-28T14:04:28;21.20;;;17.37;;
9720;SDS011;4899;42.644;23.366;2023-12-28T14:06:54;20.60;;;17.03;;
9720;SDS011;4899;42.644;23.366;2023-12-28T14:09:19;24.93;;;17.47;;
9720;SDS011;4899;42.644;23.366;2023-12-28T14:11:46;22.07;;;17.80;;
9720;SDS011;4899;42.644;23.366;2023-12-28T14:14:12;23.67;;;19.00;;
9720;SDS011;4899;42.644;23.366;2023-12-28T14:16:37;23.03;;;18.30;;
9720;SDS011;4899;42.644;23.366;2023-12-28T14:19:02;27.87;;;18.53;;
9720;SDS011;4899;42.644;23.366;2023-12-28T14:21:28;26.90;;;19.00;;
9720;SDS011;4899;42.644;23.366;2023-12-28T14:23:53;20.50;;;17.60;;
9720;SDS011;4899;42.644;23.366;2023-12-28T14:26:19;19.53;;;15.07;;
9720;SDS011;4899;42.644;23.366;2023-12-28T14:28:46;26.50;;;15.10;;
9720;SDS011;4899;42.644;23.366;2023-12-28T14:31:11;22.83;;;15.33;;
9720;SDS011;4899;42.644;23.366;2023-12-28T14:33:37;25.07;;;16.30;;
9720;SDS011;4899;42.644;23.366;2023-12-28T14:36:12;25.87;;;15.43;;
9720;SDS011;4899;42.644;23.366;2023-12-28T14:38:39;21.30;;;14.90;;
9720;SDS011;4899;42.644;23.366;2023-12-28T14:41:04;22.83;;;15.30;;
9720;SDS011;4899;42.644;23.366;2023-12-28T14:43:29;22.70;;;16.57;;